Terminal Aerodrome Forecast
Issued by NWS

Home | Current Version | Previous Version | Graphics & Text | Print | Product List | Glossary On
Versions: 1 2 3 4 5 6 7 8 9 10 11 12 13 14 15 16 17 18 19 20 21
000
FTUS43 KGRB 010247 AAA
TAFMTW
TAF AMD
KMTW 010247Z 0103/0124 19003KT 5SM BR SCT015
     FM010600 VRB03KT 3SM BR FEW007 SCT015
      TEMPO 0109/0113 1/2SM FG SCT007
     FM011400 21006KT 5SM BR SCT015 SCT200
     FM011800 18010KT P6SM SCT200=

USA.gov is the U.S. government's official web portal to all federal, state and local government web resources and services.